createdAt,value
2022-10-08T00:01:48.723Z,2.00
2022-10-08T00:04:22.125Z,2.00
2022-10-08T00:06:52.842Z,2.30
2022-10-08T00:09:25.535Z,2.10
2022-10-08T00:11:55.887Z,2.07
2022-10-08T00:14:26.379Z,2.03
2022-10-08T00:16:56.503Z,2.20
2022-10-08T00:19:26.714Z,2.23
2022-10-08T00:21:59.428Z,1.83
2022-10-08T00:24:35.035Z,1.93
2022-10-08T00:27:12.940Z,1.77
2022-10-08T00:29:44.785Z,2.63
2022-10-08T00:32:19.420Z,2.20
2022-10-08T00:34:50.588Z,2.13
2022-10-08T00:37:25.650Z,2.00
2022-10-08T00:39:58.893Z,1.97
2022-10-08T00:42:29.192Z,1.70
2022-10-08T00:45:04.144Z,1.77
2022-10-08T00:47:48.395Z,1.90
2022-10-08T00:50:29.243Z,2.40
2022-10-08T00:53:04.686Z,2.20
2022-10-08T00:55:44.243Z,1.73
2022-10-08T00:58:22.743Z,2.43
2022-10-08T01:00:56.065Z,1.97
2022-10-08T01:03:28.775Z,2.13
2022-10-08T01:06:11.647Z,2.03
2022-10-08T01:08:57.576Z,2.00
2022-10-08T01:11:52.479Z,2.00
2022-10-08T01:14:41.957Z,2.10
2022-10-08T01:17:29.171Z,2.70
2022-10-08T01:20:34.098Z,2.13
2022-10-08T01:23:42.669Z,2.20
2022-10-08T01:26:36.566Z,2.67
2022-10-08T01:29:17.746Z,2.27
2022-10-08T01:31:54.463Z,2.00
2022-10-08T01:34:31.613Z,1.97
2022-10-08T01:37:06.314Z,2.30
2022-10-08T01:39:43.527Z,2.00
2022-10-08T01:42:15.220Z,2.23
2022-10-08T01:45:02.259Z,2.10
2022-10-08T01:47:33.885Z,2.27
2022-10-08T01:50:19.222Z,2.20
2022-10-08T01:52:55.843Z,1.90
2022-10-08T01:55:34.421Z,2.27
2022-10-08T01:58:14.696Z,2.43
2022-10-08T02:00:53.041Z,2.03
2022-10-08T02:03:23.213Z,2.07
2022-10-08T02:05:57.320Z,1.87
2022-10-08T02:08:27.510Z,1.90
2022-10-08T02:10:58.071Z,1.93
2022-10-08T02:13:28.439Z,2.83
2022-10-08T02:16:12.107Z,2.00
2022-10-08T02:18:54.627Z,1.93
2022-10-08T02:21:32.508Z,2.10
2022-10-08T02:24:17.410Z,2.20
2022-10-08T02:26:52.422Z,1.90
2022-10-08T02:29:34.228Z,2.00
2022-10-08T02:32:20.280Z,2.20
2022-10-08T02:35:04.754Z,2.20
2022-10-08T02:37:46.284Z,1.83
2022-10-08T02:40:20.321Z,1.90
2022-10-08T02:43:02.257Z,2.10
2022-10-08T02:45:36.273Z,2.10
2022-10-08T02:48:16.051Z,2.10
2022-10-08T02:50:54.200Z,1.97
2022-10-08T02:53:27.071Z,1.73
2022-10-08T02:56:15.979Z,2.40
2022-10-08T02:58:47.308Z,2.00
2022-10-08T03:01:33.114Z,2.20
2022-10-08T03:04:13.903Z,1.93
2022-10-08T03:06:44.478Z,1.80
2022-10-08T03:09:18.233Z,2.37
2022-10-08T03:11:49.107Z,2.03
2022-10-08T03:14:22.493Z,2.00
2022-10-08T03:16:55.556Z,2.07
2022-10-08T03:19:30.844Z,1.87
2022-10-08T03:22:07.324Z,2.00
2022-10-08T03:24:41.174Z,2.00
2022-10-08T03:27:11.215Z,1.90
2022-10-08T03:29:41.479Z,2.10
2022-10-08T03:32:12.562Z,1.93
2022-10-08T03:34:45.271Z,2.10
2022-10-08T03:37:15.326Z,2.20
2022-10-08T03:39:50.524Z,2.07
2022-10-08T03:42:20.603Z,1.87
2022-10-08T03:44:50.703Z,1.90
2022-10-08T03:47:23.489Z,1.90
2022-10-08T03:50:03.381Z,1.90
2022-10-08T03:52:40.885Z,1.90
2022-10-08T03:55:11.973Z,2.43
2022-10-08T03:57:42.041Z,1.90
2022-10-08T04:00:14.361Z,1.90
2022-10-08T04:02:44.567Z,2.00
2022-10-08T04:05:19.621Z,2.17
2022-10-08T04:07:49.608Z,2.03
2022-10-08T04:10:19.858Z,2.33
2022-10-08T04:12:52.230Z,2.00
2022-10-08T04:15:22.560Z,1.90
2022-10-08T04:17:52.612Z,1.80
2022-10-08T04:20:31.147Z,1.83
2022-10-08T04:23:04.236Z,1.70
2022-10-08T04:25:37.611Z,2.00
2022-10-08T04:28:08.670Z,1.63
2022-10-08T04:30:38.770Z,1.93
2022-10-08T04:33:08.814Z,2.00
2022-10-08T04:35:48.016Z,1.83
2022-10-08T04:38:18.062Z,2.10
2022-10-08T04:40:48.160Z,1.80
2022-10-08T04:43:18.860Z,2.00
2022-10-08T04:45:49.268Z,1.90
2022-10-08T04:48:19.379Z,1.60
2022-10-08T04:50:56.312Z,1.90
2022-10-08T04:53:31.985Z,1.90
2022-10-08T04:56:14.313Z,1.70
2022-10-08T04:58:44.615Z,1.90
2022-10-08T05:01:18.220Z,2.13
2022-10-08T05:03:50.441Z,2.03
2022-10-08T05:06:27.191Z,1.57
2022-10-08T05:08:57.987Z,1.80
2022-10-08T05:11:29.813Z,1.97
2022-10-08T05:14:01.516Z,1.67
2022-10-08T05:16:43.912Z,2.07
2022-10-08T05:19:13.993Z,1.70
2022-10-08T05:21:48.757Z,1.80
2022-10-08T05:24:18.895Z,2.27
2022-10-08T05:26:58.446Z,1.90
2022-10-08T05:29:30.449Z,1.92
2022-10-08T05:32:02.795Z,1.80
2022-10-08T05:34:35.879Z,2.57
2022-10-08T05:37:08.554Z,1.75
2022-10-08T05:39:43.856Z,1.83
2022-10-08T05:42:14.340Z,2.33
2022-10-08T05:44:45.606Z,2.15
2022-10-08T05:47:15.726Z,2.10
2022-10-08T05:49:45.909Z,2.20
2022-10-08T05:52:23.210Z,2.30
2022-10-08T05:54:53.331Z,2.17
2022-10-08T05:57:26.026Z,1.92
2022-10-08T05:59:58.808Z,2.22
2022-10-08T06:02:31.943Z,2.20
2022-10-08T06:05:02.222Z,1.75
2022-10-08T06:07:38.063Z,1.80
2022-10-08T06:10:10.192Z,1.70
2022-10-08T06:12:42.811Z,1.73
2022-10-08T06:15:13.531Z,1.75
2022-10-08T06:17:43.604Z,2.15
2022-10-08T06:20:16.855Z,2.30
2022-10-08T06:22:49.732Z,1.77
2022-10-08T06:25:22.533Z,1.60
2022-10-08T06:27:54.920Z,1.65
2022-10-08T06:30:28.117Z,1.70
2022-10-08T06:33:04.135Z,1.50
2022-10-08T06:35:34.195Z,1.60
2022-10-08T06:38:08.908Z,1.90
2022-10-08T06:40:40.941Z,1.73
2022-10-08T06:43:15.575Z,1.80
2022-10-08T06:45:47.590Z,1.75
2022-10-08T06:48:20.443Z,1.90
2022-10-08T06:51:00.709Z,1.85
2022-10-08T06:53:35.008Z,1.77
2022-10-08T06:56:07.472Z,2.03
2022-10-08T06:58:38.252Z,1.70
2022-10-08T07:01:20.106Z,1.90
2022-10-08T07:03:58.802Z,1.77
2022-10-08T07:06:31.716Z,2.13
2022-10-08T07:09:07.148Z,2.30
2022-10-08T07:11:37.452Z,2.22
2022-10-08T07:14:07.500Z,2.33
2022-10-08T07:16:37.775Z,2.17
2022-10-08T07:19:07.879Z,1.98
2022-10-08T07:21:40.741Z,2.22
2022-10-08T07:24:22.910Z,2.20
2022-10-08T07:26:56.029Z,2.55
2022-10-08T07:29:29.126Z,2.75
2022-10-08T07:31:59.204Z,2.33
2022-10-08T07:34:31.811Z,2.20
2022-10-08T07:37:02.110Z,2.10
2022-10-08T07:39:37.679Z,2.50
2022-10-08T07:42:08.357Z,2.58
2022-10-08T07:44:38.648Z,2.38
2022-10-08T07:47:12.510Z,2.72
2022-10-08T07:49:42.698Z,2.90
2022-10-08T07:52:12.781Z,2.60
2022-10-08T07:54:47.801Z,2.80
2022-10-08T07:57:17.837Z,3.20
2022-10-08T07:59:50.520Z,3.25
2022-10-08T08:02:20.616Z,3.42
2022-10-08T08:05:00.284Z,3.40
2022-10-08T08:07:33.412Z,3.63
2022-10-08T08:10:06.910Z,3.80
2022-10-08T08:12:37.090Z,3.60
2022-10-08T08:15:17.979Z,3.47
2022-10-08T08:17:50.657Z,4.07
2022-10-08T08:20:20.755Z,3.92
2022-10-08T08:22:53.800Z,4.10
2022-10-08T08:25:31.273Z,4.40
2022-10-08T08:28:01.387Z,4.53
2022-10-08T08:30:31.473Z,4.43
2022-10-08T08:33:07.576Z,4.28
2022-10-08T08:35:42.325Z,4.65
2022-10-08T08:38:15.175Z,4.28
2022-10-08T08:40:50.159Z,3.63
2022-10-08T08:43:20.282Z,3.75
2022-10-08T08:45:52.264Z,3.70
2022-10-08T08:48:29.080Z,3.65
2022-10-08T08:51:00.499Z,3.47
2022-10-08T08:53:37.278Z,3.75
2022-10-08T08:56:18.776Z,4.20
2022-10-08T08:58:58.616Z,4.18
2022-10-08T09:01:41.478Z,4.22
2022-10-08T09:04:25.377Z,4.25
2022-10-08T09:07:03.423Z,4.38
2022-10-08T09:09:42.127Z,4.15
2022-10-08T09:12:24.594Z,3.75
2022-10-08T09:15:02.807Z,3.28
2022-10-08T09:17:41.448Z,3.75
2022-10-08T09:20:17.477Z,3.05
2022-10-08T09:22:50.633Z,3.35
2022-10-08T09:25:28.249Z,2.75
2022-10-08T09:28:05.350Z,3.30
2022-10-08T09:30:40.288Z,3.20
2022-10-08T09:33:33.127Z,3.40
2022-10-08T09:36:03.533Z,3.22
2022-10-08T09:38:39.947Z,3.28
2022-10-08T09:41:20.173Z,3.03
2022-10-08T09:44:21.408Z,2.30
2022-10-08T09:47:07.572Z,3.00
2022-10-08T09:49:40.217Z,2.40
2022-10-08T09:52:22.294Z,2.63
2022-10-08T09:55:00.653Z,2.42
2022-10-08T09:57:38.437Z,2.10
2022-10-08T10:00:29.620Z,2.65
2022-10-08T10:03:05.870Z,2.85
2022-10-08T10:05:46.511Z,2.83
2022-10-08T10:08:48.438Z,2.70
2022-10-08T10:11:32.001Z,3.45
2022-10-08T10:14:10.071Z,3.10
2022-10-08T10:16:47.124Z,3.20
2022-10-08T10:19:23.707Z,2.88
2022-10-08T10:22:05.816Z,2.08
2022-10-08T10:24:57.229Z,2.58
2022-10-08T10:27:35.595Z,2.40
2022-10-08T10:30:20.232Z,2.90
2022-10-08T10:33:00.269Z,2.58
2022-10-08T10:35:33.187Z,2.45
2022-10-08T10:38:14.614Z,2.60
2022-10-08T10:40:50.446Z,2.75
2022-10-08T10:43:46.561Z,2.75
2022-10-08T10:46:35.761Z,2.50
2022-10-08T10:49:19.559Z,2.30
2022-10-08T10:52:11.058Z,2.95
2022-10-08T10:55:01.530Z,2.50
2022-10-08T10:58:07.033Z,2.75
2022-10-08T11:00:53.858Z,2.28
2022-10-08T11:03:38.769Z,2.20
2022-10-08T11:06:47.963Z,2.38
2022-10-08T11:09:39.603Z,2.75
2022-10-08T11:12:30.235Z,3.67
2022-10-08T11:15:23.819Z,3.67
2022-10-08T11:18:18.918Z,2.70
2022-10-08T11:21:15.342Z,2.92
2022-10-08T11:24:08.674Z,2.22
2022-10-08T11:26:47.838Z,2.72
2022-10-08T11:29:31.998Z,1.73
2022-10-08T11:32:03.848Z,1.90
2022-10-08T11:34:38.250Z,1.80
2022-10-08T11:37:24.299Z,2.00
2022-10-08T11:40:09.107Z,1.90
2022-10-08T11:42:59.568Z,1.65
2022-10-08T11:45:37.191Z,2.13
2022-10-08T11:48:36.308Z,2.17
2022-10-08T11:51:37.663Z,2.15
2022-10-08T11:54:19.346Z,2.55
2022-10-08T11:57:13.104Z,2.65
2022-10-08T11:59:46.859Z,1.80
2022-10-08T12:02:32.035Z,2.10
2022-10-08T12:05:22.153Z,2.42
2022-10-08T12:07:56.335Z,2.00
2022-10-08T12:10:41.780Z,1.63
2022-10-08T12:13:31.489Z,1.88
2022-10-08T12:16:07.840Z,1.63
2022-10-08T12:18:56.052Z,1.90
2022-10-08T12:21:56.128Z,2.15
2022-10-08T12:24:58.999Z,1.60
2022-10-08T12:27:49.758Z,1.55
2022-10-08T12:30:20.905Z,2.05
2022-10-08T12:32:59.831Z,1.50
2022-10-08T12:35:34.249Z,2.30
2022-10-08T12:38:41.276Z,1.63
2022-10-08T12:41:24.320Z,2.03
2022-10-08T12:44:07.021Z,1.70
2022-10-08T12:46:50.684Z,1.95
2022-10-08T12:49:35.463Z,1.63
2022-10-08T12:52:13.342Z,1.98
2022-10-08T12:55:03.443Z,1.83
2022-10-08T12:57:38.376Z,1.70
2022-10-08T13:00:29.446Z,2.15
2022-10-08T13:03:08.775Z,2.30
2022-10-08T13:05:43.340Z,1.63
2022-10-08T13:08:33.547Z,2.00
2022-10-08T13:11:07.260Z,1.60
2022-10-08T13:13:54.274Z,1.30
2022-10-08T13:16:32.210Z,1.35
2022-10-08T13:19:02.329Z,1.52
2022-10-08T13:21:40.946Z,1.60
2022-10-08T13:24:49.787Z,1.67
2022-10-08T13:27:37.647Z,1.70
2022-10-08T13:30:31.300Z,1.45
2022-10-08T13:33:16.954Z,16.75
2022-10-08T13:35:55.264Z,2.88
2022-10-08T13:38:36.729Z,1.83
2022-10-08T13:41:10.627Z,1.60
2022-10-08T13:43:46.466Z,2.60
2022-10-08T13:46:16.834Z,1.48
2022-10-08T13:48:49.613Z,1.70
2022-10-08T13:51:19.742Z,1.30
2022-10-08T13:53:56.861Z,1.65
2022-10-08T13:56:27.452Z,1.70
2022-10-08T13:58:59.875Z,1.42
2022-10-08T14:01:29.897Z,1.55
2022-10-08T14:04:07.636Z,1.35
2022-10-08T14:06:38.630Z,1.05
2022-10-08T14:09:10.965Z,1.20
2022-10-08T14:11:41.364Z,1.40
2022-10-08T14:14:17.855Z,1.23
2022-10-08T14:16:48.100Z,1.38
2022-10-08T14:19:21.368Z,1.52
2022-10-08T14:21:52.750Z,1.48
2022-10-08T14:24:22.890Z,1.70
2022-10-08T14:26:52.998Z,1.88
2022-10-08T14:29:23.120Z,1.90
2022-10-08T14:31:53.348Z,1.50
2022-10-08T14:34:26.005Z,1.40
2022-10-08T14:36:59.390Z,1.85
2022-10-08T14:39:30.128Z,1.50
2022-10-08T14:42:00.311Z,1.63
2022-10-08T14:44:33.194Z,1.65
2022-10-08T14:47:05.840Z,1.52
2022-10-08T14:49:41.877Z,1.60
2022-10-08T14:52:12.026Z,1.42
2022-10-08T14:54:49.712Z,1.63
2022-10-08T14:57:20.318Z,1.45
2022-10-08T14:59:53.267Z,1.65
2022-10-08T15:02:30.435Z,1.35
2022-10-08T15:05:05.459Z,1.58
2022-10-08T15:07:38.841Z,1.70
2022-10-08T15:10:10.675Z,1.40
2022-10-08T15:12:47.107Z,1.30
2022-10-08T15:15:19.781Z,1.50
2022-10-08T15:17:50.694Z,1.30
2022-10-08T15:20:26.634Z,1.55
2022-10-08T15:22:56.741Z,2.35
2022-10-08T15:25:27.507Z,1.20
2022-10-08T15:28:00.459Z,1.30
2022-10-08T15:30:30.683Z,1.10
2022-10-08T15:33:06.800Z,1.30
2022-10-08T15:35:44.351Z,1.67
2022-10-08T15:38:14.670Z,1.80
2022-10-08T15:40:47.248Z,1.33
2022-10-08T15:43:17.367Z,1.30
2022-10-08T15:45:47.991Z,8.07
2022-10-08T15:48:18.144Z,2.35
2022-10-08T15:51:01.119Z,2.33
2022-10-08T15:53:39.924Z,1.83
2022-10-08T15:56:11.890Z,6.85
2022-10-08T15:58:51.445Z,1.90
2022-10-08T16:01:24.474Z,1.60
2022-10-08T16:03:58.103Z,1.65
2022-10-08T16:06:36.832Z,1.25
2022-10-08T16:09:07.816Z,1.40
2022-10-08T16:11:41.374Z,1.40
2022-10-08T16:14:15.479Z,1.52
2022-10-08T16:16:52.697Z,1.40
2022-10-08T16:19:25.990Z,1.38
2022-10-08T16:22:01.361Z,1.50
2022-10-08T16:24:31.621Z,1.75
2022-10-08T16:27:01.720Z,1.75
2022-10-08T16:29:39.692Z,1.50
2022-10-08T16:32:11.081Z,2.30
2022-10-08T16:34:51.287Z,1.75
2022-10-08T16:37:26.058Z,1.85
2022-10-08T16:39:57.131Z,1.50
2022-10-08T16:42:36.327Z,1.40
2022-10-08T16:45:06.764Z,2.03
2022-10-08T16:47:36.869Z,1.55
2022-10-08T16:50:07.898Z,1.60
2022-10-08T16:52:43.447Z,2.03
2022-10-08T16:55:13.562Z,1.90
2022-10-08T16:57:51.462Z,2.17
2022-10-08T17:00:22.118Z,1.92
2022-10-08T17:02:52.330Z,1.80
2022-10-08T17:05:25.393Z,1.42
2022-10-08T17:08:00.948Z,2.20
2022-10-08T17:10:33.961Z,1.88
2022-10-08T17:13:04.101Z,1.90
2022-10-08T17:15:36.445Z,2.58
2022-10-08T17:18:06.820Z,3.63
2022-10-08T17:20:41.279Z,2.70
2022-10-08T17:23:14.860Z,2.83
2022-10-08T17:25:47.631Z,2.20
2022-10-08T17:28:20.075Z,2.63
2022-10-08T17:30:50.195Z,3.10
2022-10-08T17:33:20.348Z,2.60
2022-10-08T17:35:50.467Z,2.83
2022-10-08T17:38:23.177Z,2.40
2022-10-08T17:40:53.209Z,2.83
2022-10-08T17:43:26.272Z,2.42
2022-10-08T17:45:56.468Z,3.45
2022-10-08T17:48:26.689Z,3.22
2022-10-08T17:50:56.831Z,3.08
2022-10-08T17:53:37.275Z,3.30
2022-10-08T17:56:10.183Z,2.80
2022-10-08T17:58:43.611Z,2.90
2022-10-08T18:01:18.018Z,3.38
2022-10-08T18:04:00.127Z,5.45
2022-10-08T18:06:40.809Z,6.57
2022-10-08T18:09:16.345Z,6.72
2022-10-08T18:11:50.907Z,13.88
2022-10-08T18:14:27.312Z,15.73
2022-10-08T18:16:57.440Z,12.50
2022-10-08T18:19:27.856Z,13.27
2022-10-08T18:21:57.938Z,13.65
2022-10-08T18:24:30.665Z,13.43
2022-10-08T18:27:00.739Z,12.32
2022-10-08T18:29:33.660Z,11.03
2022-10-08T18:32:06.316Z,10.10
2022-10-08T18:34:41.319Z,10.63
2022-10-08T18:37:11.395Z,10.63
2022-10-08T18:39:44.146Z,11.50
2022-10-08T18:42:14.241Z,9.87
2022-10-08T18:44:47.311Z,9.70
2022-10-08T18:47:17.346Z,9.83
2022-10-08T18:49:50.231Z,9.80
2022-10-08T18:52:26.826Z,8.80
2022-10-08T18:54:59.504Z,9.13
2022-10-08T18:57:29.730Z,9.37
2022-10-08T19:00:03.016Z,8.80
2022-10-08T19:02:33.228Z,8.50
2022-10-08T19:05:03.354Z,8.10
2022-10-08T19:07:36.194Z,7.33
2022-10-08T19:10:10.129Z,8.53
2022-10-08T19:12:40.238Z,7.33
2022-10-08T19:15:11.461Z,7.33
2022-10-08T19:17:41.516Z,6.70
2022-10-08T19:20:17.893Z,6.40
2022-10-08T19:22:49.081Z,6.00
2022-10-08T19:25:22.007Z,5.73
2022-10-08T19:27:54.880Z,5.97
2022-10-08T19:30:32.909Z,5.43
2022-10-08T19:33:03.431Z,5.70
2022-10-08T19:35:42.495Z,5.70
2022-10-08T19:38:12.604Z,5.13
2022-10-08T19:40:45.503Z,5.93
2022-10-08T19:43:15.571Z,5.87
2022-10-08T19:45:45.652Z,5.63
2022-10-08T19:48:15.705Z,6.43
2022-10-08T19:50:45.856Z,6.43
2022-10-08T19:53:15.978Z,6.40
2022-10-08T19:55:48.622Z,6.47
2022-10-08T19:58:21.332Z,7.03
2022-10-08T20:01:01.972Z,6.63
2022-10-08T20:03:32.240Z,6.30
2022-10-08T20:06:05.555Z,6.07
2022-10-08T20:08:39.515Z,6.73
2022-10-08T20:11:17.247Z,6.93
2022-10-08T20:13:50.297Z,6.47
2022-10-08T20:16:29.004Z,7.93
2022-10-08T20:19:04.380Z,6.87
2022-10-08T20:21:37.891Z,8.10
2022-10-08T20:24:09.097Z,7.63
2022-10-08T20:26:44.539Z,8.20
2022-10-08T20:29:18.228Z,7.60
2022-10-08T20:31:50.974Z,6.53
2022-10-08T20:34:28.657Z,7.40
2022-10-08T20:37:02.391Z,8.50
2022-10-08T20:39:32.893Z,6.90
2022-10-08T20:42:05.566Z,6.17
2022-10-08T20:44:35.734Z,6.10
2022-10-08T20:47:08.105Z,6.80
2022-10-08T20:49:41.224Z,6.50
2022-10-08T20:52:11.305Z,5.87
2022-10-08T20:54:45.652Z,5.90
2022-10-08T20:57:35.851Z,5.77
2022-10-08T21:00:14.482Z,5.27
2022-10-08T21:02:44.694Z,5.20
2022-10-08T21:05:14.800Z,5.53
2022-10-08T21:07:44.845Z,5.67
2022-10-08T21:10:14.935Z,5.40
2022-10-08T21:12:47.767Z,5.77
2022-10-08T21:15:20.925Z,6.30
2022-10-08T21:17:50.983Z,5.27
2022-10-08T21:20:21.125Z,5.40
2022-10-08T21:22:54.063Z,5.90
2022-10-08T21:25:24.430Z,6.87
2022-10-08T21:27:57.103Z,5.77
2022-10-08T21:30:32.648Z,6.40
2022-10-08T21:33:02.737Z,6.03
2022-10-08T21:35:32.829Z,6.00
2022-10-08T21:38:05.169Z,6.07
2022-10-08T21:40:35.201Z,8.53
2022-10-08T21:43:10.615Z,8.80
2022-10-08T21:45:40.749Z,8.33
2022-10-08T21:48:13.721Z,7.83
2022-10-08T21:50:46.470Z,11.27
2022-10-08T21:53:16.615Z,10.13
2022-10-08T21:55:46.666Z,6.80
2022-10-08T21:58:19.565Z,5.87
2022-10-08T22:00:49.703Z,5.20
2022-10-08T22:03:27.162Z,5.30
2022-10-08T22:06:00.689Z,4.93
2022-10-08T22:08:33.808Z,4.53
2022-10-08T22:11:07.156Z,4.90
2022-10-08T22:13:42.219Z,5.07
2022-10-08T22:16:23.708Z,5.33
2022-10-08T22:18:54.032Z,4.30
2022-10-08T22:21:25.776Z,4.30
2022-10-08T22:23:58.768Z,4.20
2022-10-08T22:26:33.549Z,4.47
2022-10-08T22:29:19.436Z,5.40
2022-10-08T22:31:51.865Z,4.60
2022-10-08T22:34:24.457Z,4.70
2022-10-08T22:36:54.576Z,4.60
2022-10-08T22:39:24.660Z,4.80
2022-10-08T22:41:54.711Z,4.47
2022-10-08T22:44:27.352Z,4.30
2022-10-08T22:46:57.391Z,4.90
2022-10-08T22:49:27.720Z,5.83
2022-10-08T22:52:00.816Z,6.10
2022-10-08T22:54:30.864Z,6.70
2022-10-08T22:57:00.957Z,7.60
2022-10-08T22:59:46.675Z,7.20
2022-10-08T23:02:16.874Z,8.30
2022-10-08T23:04:46.988Z,8.80
2022-10-08T23:07:17.131Z,10.97
2022-10-08T23:09:47.202Z,10.27
2022-10-08T23:12:23.140Z,10.30
2022-10-08T23:14:58.008Z,8.07
2022-10-08T23:17:28.170Z,7.70
2022-10-08T23:20:00.783Z,6.50
2022-10-08T23:22:33.632Z,6.60
2022-10-08T23:25:06.076Z,6.70
2022-10-08T23:27:36.206Z,6.60
2022-10-08T23:30:31.314Z,6.17
2022-10-08T23:33:00.657Z,6.13
2022-10-08T23:35:42.108Z,6.10
2022-10-08T23:38:14.126Z,6.37
2022-10-08T23:40:44.197Z,7.73
2022-10-08T23:43:20.100Z,7.80
2022-10-08T23:45:55.475Z,7.73
2022-10-08T23:48:25.747Z,7.53
2022-10-08T23:50:58.814Z,7.53
2022-10-08T23:53:29.576Z,6.00
2022-10-08T23:55:59.735Z,6.20
2022-10-08T23:58:30.005Z,5.60
